Time;durP1;ratioP1;P1;durP2;ratioP2;P2;SDS_P1;SDS_P2;PMS_P1;PMS_P2;Temp;Humidity;BMP_temperature;BMP_pressure;BME280_temperature;BME280_humidity;BME280_pressure;Samples;Min_cycle;Max_cycle;Signal;HPM_P1;HPM_P2
2023/06/14 00:02:09;;;;;;;5.32;4.82;;;;;;;17.59;69.43;93590.63;4971211;28;20273;-73
2023/06/14 00:04:35;;;;;;;8.45;5.38;;;;;;;17.71;68.97;93611.94;4966424;28;20042;-73
2023/06/14 00:07:00;;;;;;;8.05;4.93;;;;;;;17.61;69.18;93593.72;4968992;28;20535;-74
2023/06/14 00:09:27;;;;;;;6.30;4.80;;;;;;;17.66;69.74;93606.09;4976312;28;20522;-73
2023/06/14 00:11:52;;;;;;;7.75;5.55;;;;;;;17.63;69.93;93594.16;4977322;28;20137;-73
2023/06/14 00:14:17;;;;;;;8.27;5.65;;;;;;;17.65;70.02;93594.53;4974569;28;20123;-74
2023/06/14 00:16:44;;;;;;;5.63;5.03;;;;;;;17.69;69.84;93600.00;4971483;28;20044;-74
2023/06/14 00:19:10;;;;;;;6.45;4.85;;;;;;;17.61;69.68;93578.38;4974667;28;20096;-73
2023/06/14 00:21:37;;;;;;;10.05;5.97;;;;;;;17.66;70.11;93598.00;4975126;28;20593;-73
2023/06/14 00:24:04;;;;;;;6.47;5.55;;;;;;;17.71;69.92;93597.69;4974025;28;20129;-74
2023/06/14 00:26:29;;;;;;;7.65;5.45;;;;;;;17.66;70.03;93589.94;4975981;28;20046;-73
2023/06/14 00:28:56;;;;;;;5.72;5.10;;;;;;;17.66;70.11;93593.41;4974225;28;20040;-74
2023/06/14 00:31:21;;;;;;;5.63;4.93;;;;;;;17.59;70.07;93587.94;4977053;28;20018;-74
2023/06/14 00:33:46;;;;;;;5.45;4.82;;;;;;;17.65;70.04;93591.84;4975955;28;20018;-73
2023/06/14 00:36:12;;;;;;;5.90;5.25;;;;;;;17.67;69.78;93592.28;4976559;28;20034;-73
2023/06/14 00:38:37;;;;;;;8.77;5.28;;;;;;;17.69;69.78;93592.72;4974544;28;20034;-74
2023/06/14 00:41:03;;;;;;;7.65;4.65;;;;;;;17.59;69.72;93574.50;4974725;28;20113;-74
2023/06/14 00:43:29;;;;;;;6.82;5.28;;;;;;;17.64;69.70;93576.88;4976068;28;20045;-74
2023/06/14 00:45:54;;;;;;;4.82;4.05;;;;;;;17.67;69.60;93578.06;4974355;28;20601;-74
2023/06/14 00:48:20;;;;;;;6.72;4.47;;;;;;;17.70;69.38;93580.03;4975937;28;20256;-74
2023/06/14 00:50:46;;;;;;;8.20;4.55;;;;;;;17.59;69.30;93575.28;4975550;28;20042;-73
2023/06/14 00:53:15;;;;;;;8.00;5.07;;;;;;;17.58;69.26;93575.63;4975001;28;20040;-74
2023/06/14 00:55:41;;;;;;;8.95;4.65;;;;;;;17.54;69.14;93556.78;4974675;28;20428;-74
2023/06/14 00:58:07;;;;;;;6.75;4.72;;;;;;;17.60;69.28;93565.28;4973728;28;20026;-74
2023/06/14 01:00:33;;;;;;;6.22;4.45;;;;;;;17.58;69.41;93562.19;4973973;28;20037;-73
2023/06/14 01:02:58;;;;;;;8.90;4.72;;;;;;;17.65;69.82;93583.03;4976007;28;20035;-74
2023/06/14 01:05:24;;;;;;;6.32;4.35;;;;;;;17.64;69.75;93578.78;4974523;28;20066;-73
2023/06/14 01:08:25;;;;;;;6.43;4.38;;;;;;;17.62;69.65;93576.47;4988164;28;20042;-73
2023/06/14 01:11:37;;;;;;;5.00;4.25;;;;;;;17.62;69.52;93581.84;4975530;28;20039;-73
2023/06/14 01:14:03;;;;;;;7.90;4.75;;;;;;;17.64;69.05;93573.41;4970913;28;20038;-73
2023/06/14 01:16:31;;;;;;;10.48;4.60;;;;;;;17.65;69.32;93567.66;4974992;28;20043;-73
2023/06/14 01:18:57;;;;;;;7.50;4.55;;;;;;;17.58;69.26;93578.31;4991844;28;20664;-74
2023/06/14 01:21:24;;;;;;;4.60;4.07;;;;;;;17.55;69.18;93577.13;4972117;28;20609;-73
2023/06/14 01:23:52;;;;;;;5.72;4.85;;;;;;;17.46;69.18;93554.31;4975451;28;20477;-73
2023/06/14 01:26:22;;;;;;;5.38;4.75;;;;;;;17.54;69.67;93572.91;4973356;28;20588;-73
2023/06/14 01:28:50;;;;;;;7.95;4.43;;;;;;;17.55;69.57;93574.44;4973300;28;20125;-73
2023/06/14 01:31:21;;;;;;;5.53;4.22;;;;;;;17.45;69.87;93561.59;4977301;28;20049;-73
2023/06/14 01:33:48;;;;;;;5.22;4.35;;;;;;;17.50;69.84;93571.31;4974483;28;20075;-73
2023/06/14 01:36:15;;;;;;;4.72;4.03;;;;;;;17.53;69.77;93575.94;4982844;28;20034;-74
2023/06/14 01:38:43;;;;;;;6.35;4.60;;;;;;;17.48;69.97;93568.19;4975593;28;20568;-73
2023/06/14 01:41:09;;;;;;;7.53;4.32;;;;;;;17.45;69.83;93563.53;4975528;28;20034;-73
2023/06/14 01:43:35;;;;;;;6.18;3.83;;;;;;;17.47;69.52;93564.72;4975641;28;20145;-74
2023/06/14 01:46:02;;;;;;;5.93;4.13;;;;;;;17.54;69.10;93574.81;4977537;28;20036;-73
2023/06/14 01:48:28;;;;;;;6.35;4.70;;;;;;;17.52;69.27;93575.16;4973456;28;20088;-74
2023/06/14 01:50:54;;;;;;;4.55;4.00;;;;;;;17.38;69.07;93545.41;4973672;28;20184;-74
2023/06/14 01:53:20;;;;;;;5.72;3.78;;;;;;;17.53;68.84;93570.56;4976042;28;20077;-73
2023/06/14 01:55:48;;;;;;;6.63;4.20;;;;;;;17.53;68.88;93581.31;4973145;28;20535;-73
2023/06/14 01:58:13;;;;;;;7.93;5.03;;;;;;;17.41;68.75;93568.06;4976060;28;20066;-73
2023/06/14 02:00:40;;;;;;;6.00;4.13;;;;;;;17.37;68.84;93561.88;4974124;28;20038;-73
2023/06/14 02:03:05;;;;;;;5.13;4.18;;;;;;;17.46;69.27;93586.59;4974301;28;20473;-74
2023/06/14 02:05:31;;;;;;;8.27;4.25;;;;;;;17.45;69.00;93579.69;4971083;28;20046;-74
2023/06/14 02:07:56;;;;;;;6.85;4.00;;;;;;;17.43;69.43;93584.63;4973920;28;20429;-73
2023/06/14 02:10:22;;;;;;;4.78;3.85;;;;;;;17.58;69.31;93583.72;4973419;28;20111;-73
2023/06/14 02:12:48;;;;;;;5.32;4.22;;;;;;;17.64;69.39;93592.25;4975532;28;20050;-73
2023/06/14 02:15:16;;;;;;;7.43;4.38;;;;;;;17.44;69.75;93578.13;4974111;28;20497;-74
2023/06/14 02:17:49;;;;;;;7.03;4.15;;;;;;;17.57;69.88;93603.66;4973282;28;20069;-74
2023/06/14 02:20:15;;;;;;;9.63;5.13;;;;;;;17.59;69.65;93601.41;4972614;28;20421;-74
2023/06/14 02:22:41;;;;;;;7.15;4.28;;;;;;;17.62;69.53;93606.03;4977081;28;20076;-72
2023/06/14 02:25:07;;;;;;;8.27;5.28;;;;;;;17.43;69.42;93588.09;4979098;28;20040;-73
2023/06/14 02:27:33;;;;;;;7.05;5.13;;;;;;;17.43;69.89;93608.81;4977160;28;20033;-72
2023/06/14 02:29:59;;;;;;;5.78;4.97;;;;;;;17.33;70.29;93610.22;4978670;28;20473;-73
2023/06/14 02:32:26;;;;;;;5.90;4.45;;;;;;;17.32;70.07;93592.53;4978040;28;20607;-71
2023/06/14 02:34:53;;;;;;;6.20;4.40;;;;;;;17.41;70.03;93605.72;4976800;28;20046;-72
2023/06/14 02:37:18;;;;;;;6.80;4.95;;;;;;;17.42;69.94;93607.25;4976561;28;20137;-73
2023/06/14 02:39:44;;;;;;;8.70;4.55;;;;;;;17.44;69.65;93605.78;4980706;28;20228;-73
2023/06/14 02:42:10;;;;;;;8.35;5.10;;;;;;;17.44;70.03;93605.00;4977453;28;20042;-74
2023/06/14 02:44:35;;;;;;;5.05;4.55;;;;;;;17.40;69.99;93604.97;4978009;28;20077;-74
2023/06/14 02:47:01;;;;;;;6.80;4.55;;;;;;;17.36;70.04;93597.94;4978186;28;20098;-73
2023/06/14 02:49:26;;;;;;;7.07;4.43;;;;;;;17.36;69.97;93595.25;4978511;28;20030;-74
2023/06/14 02:51:52;;;;;;;6.28;4.70;;;;;;;17.39;70.27;93600.72;4977380;28;20026;-74
2023/06/14 02:54:17;;;;;;;7.05;4.70;;;;;;;17.42;69.67;93593.81;4976876;28;20041;-73
2023/06/14 02:56:43;;;;;;;7.82;3.95;;;;;;;17.40;69.91;93598.81;4976797;28;20078;-73
2023/06/14 02:59:09;;;;;;;9.52;5.03;;;;;;;17.51;69.63;93599.72;4975039;28;20177;-73
2023/06/14 03:01:35;;;;;;;6.32;3.80;;;;;;;17.38;69.67;93601.06;4978700;28;20532;-75
2023/06/14 03:04:04;;;;;;;5.05;4.18;;;;;;;17.46;69.53;93605.41;4977137;28;20026;-73
2023/06/14 03:06:30;;;;;;;5.93;3.97;;;;;;;17.36;69.52;93604.09;4978141;28;20542;-74
2023/06/14 03:08:59;;;;;;;3.67;3.25;;;;;;;17.30;69.33;93594.81;4976709;28;20042;-72
2023/06/14 03:11:26;;;;;;;4.78;3.25;;;;;;;17.28;69.10;93591.69;4978851;28;20077;-72
2023/06/14 03:13:52;;;;;;;4.10;2.67;;;;;;;17.37;68.74;93611.03;4974697;28;20046;-73
2023/06/14 03:16:21;;;;;;;6.40;3.92;;;;;;;17.42;68.79;93620.72;4976552;28;20018;-73
2023/06/14 03:18:47;;;;;;;5.97;4.25;;;;;;;17.48;68.79;93622.75;4977669;28;20441;-74
2023/06/14 03:21:13;;;;;;;4.60;3.92;;;;;;;17.31;69.16;93609.00;4976042;28;20049;-73
2023/06/14 03:23:38;;;;;;;9.20;4.03;;;;;;;17.35;69.56;93612.53;4977044;28;20770;-74
2023/06/14 03:26:03;;;;;;;4.22;3.58;;;;;;;17.34;69.75;93621.75;4976892;28;20505;-74
2023/06/14 03:28:29;;;;;;;7.28;4.45;;;;;;;17.26;69.93;93614.72;4975286;28;20034;-73
2023/06/14 03:30:54;;;;;;;8.77;3.97;;;;;;;17.25;70.16;93624.69;4976949;28;20065;-73
2023/06/14 03:33:20;;;;;;;5.82;4.15;;;;;;;17.24;70.27;93627.72;4975564;28;20079;-73
2023/06/14 03:35:46;;;;;;;6.03;4.47;;;;;;;16.94;71.11;93608.75;4974994;28;20089;-73
2023/06/14 03:38:12;;;;;;;4.65;4.15;;;;;;;17.14;70.39;93619.13;4977318;28;20485;-73
2023/06/14 03:40:37;;;;;;;7.03;3.97;;;;;;;17.25;70.08;93624.69;4977831;28;20038;-73
2023/06/14 03:43:03;;;;;;;7.40;4.20;;;;;;;17.31;69.93;93633.97;4978016;28;20025;-73
2023/06/14 03:45:28;;;;;;;7.68;4.57;;;;;;;17.32;69.72;93630.16;4974956;28;20129;-73
2023/06/14 03:47:54;;;;;;;8.40;5.03;;;;;;;17.25;70.08;93637.34;4975109;28;20125;-73
2023/06/14 03:50:20;;;;;;;10.88;4.47;;;;;;;17.34;70.09;93627.13;4977407;28;20046;-72
2023/06/14 03:52:48;;;;;;;8.65;4.07;;;;;;;17.33;69.66;93620.19;4975627;28;20081;-73
2023/06/14 03:55:16;;;;;;;9.00;3.97;;;;;;;17.20;69.99;93605.38;4973803;28;20236;-72
2023/06/14 03:57:41;;;;;;;7.82;3.75;;;;;;;17.32;69.68;93629.38;4975889;28;20026;-73
2023/06/14 04:00:09;;;;;;;5.35;3.53;;;;;;;17.32;70.15;93632.06;4978230;28;20085;-73
2023/06/14 04:02:36;;;;;;;4.95;4.13;;;;;;;17.37;70.32;93640.59;4973592;28;20493;-73
2023/06/14 04:05:02;;;;;;;7.18;4.00;;;;;;;17.30;69.82;93637.03;4976389;28;20394;-74
2023/06/14 04:07:28;;;;;;;9.10;4.47;;;;;;;17.31;70.05;93635.88;4973038;28;20037;-73
2023/06/14 04:09:53;;;;;;;4.65;3.95;;;;;;;17.30;69.31;93628.97;4977104;28;20088;-73
2023/06/14 04:12:19;;;;;;;5.72;4.00;;;;;;;17.22;69.34;93635.34;4976620;28;20322;-73
2023/06/14 04:14:44;;;;;;;4.72;4.28;;;;;;;17.26;69.72;93631.59;4977443;28;20030;-73
2023/06/14 04:17:10;;;;;;;8.13;4.43;;;;;;;17.20;69.62;93626.88;4974969;28;20382;-73
2023/06/14 04:19:35;;;;;;;10.38;4.43;;;;;;;17.30;69.83;93632.44;4973412;28;20484;-73
2023/06/14 04:22:02;;;;;;;6.13;5.18;;;;;;;17.28;69.31;93637.38;4977345;28;20033;-73
2023/06/14 04:24:31;;;;;;;13.95;5.43;;;;;;;17.26;69.62;93636.97;4977318;28;20034;-72
2023/06/14 04:26:58;;;;;;;6.22;4.95;;;;;;;17.47;69.67;93637.31;4974239;28;20069;-73
2023/06/14 04:29:26;;;;;;;9.60;4.60;;;;;;;17.55;69.74;93640.91;4974399;28;20145;-72
2023/06/14 04:31:53;;;;;;;6.03;5.35;;;;;;;17.53;70.10;93618.97;4982460;28;20038;-73
2023/06/14 04:34:19;;;;;;;7.95;5.57;;;;;;;17.70;69.91;93637.28;4977488;28;20045;-73
2023/06/14 04:36:52;;;;;;;9.50;7.63;;;;;;;17.74;70.46;93640.81;4974647;28;20481;-73
2023/06/14 04:39:21;;;;;;;8.20;6.70;;;;;;;17.53;68.98;93645.84;4975084;28;20104;-73
2023/06/14 04:41:46;;;;;;;8.93;7.47;;;;;;;17.74;67.67;93632.75;4972957;28;20397;-73
2023/06/14 04:44:12;;;;;;;10.38;6.88;;;;;;;17.68;67.20;93642.25;4967265;28;20045;-73
2023/06/14 04:46:45;;;;;;;8.70;7.43;;;;;;;17.64;66.27;93611.06;4976095;28;20042;-73
2023/06/14 04:49:15;;;;;;;8.60;7.28;;;;;;;17.58;67.72;93640.16;4974590;28;20038;-74
2023/06/14 04:51:42;;;;;;;10.52;6.78;;;;;;;17.73;67.52;93633.88;4985070;28;20026;-73
2023/06/14 04:54:10;;;;;;;8.55;7.05;;;;;;;17.74;67.85;93642.72;4971274;28;20031;-72
2023/06/14 04:56:37;;;;;;;9.90;6.57;;;;;;;17.66;68.25;93644.50;4976248;28;20050;-73
2023/06/14 04:59:06;;;;;;;8.50;6.65;;;;;;;17.84;67.56;93640.19;4973240;28;20035;-74
2023/06/14 05:01:33;;;;;;;8.48;6.32;;;;;;;17.91;68.54;93650.25;4975940;28;20077;-72
2023/06/14 05:03:58;;;;;;;7.75;6.85;;;;;;;17.97;67.25;93649.63;4974860;28;20117;-73
2023/06/14 05:06:24;;;;;;;8.93;7.70;;;;;;;18.09;67.62;93645.94;4975550;28;20361;-72
2023/06/14 05:08:50;;;;;;;9.10;6.90;;;;;;;18.08;67.80;93638.22;4974888;28;20624;-73
2023/06/14 05:11:16;;;;;;;14.20;7.57;;;;;;;18.24;67.64;93644.19;4974971;28;20040;-73
2023/06/14 05:13:43;;;;;;;9.40;7.82;;;;;;;18.40;67.82;93656.34;4974693;28;20035;-73
2023/06/14 05:16:09;;;;;;;11.65;8.38;;;;;;;18.34;67.93;93651.63;4975414;28;20037;-74
2023/06/14 05:18:35;;;;;;;11.30;8.15;;;;;;;18.53;65.70;93654.19;4975532;28;20022;-72
2023/06/14 05:21:01;;;;;;;11.40;7.95;;;;;;;18.45;66.23;93645.25;4988424;28;21006;-73
2023/06/14 05:23:26;;;;;;;10.88;9.18;;;;;;;18.45;64.52;93652.56;4975479;28;20038;-73
2023/06/14 05:25:52;;;;;;;9.90;7.88;;;;;;;18.55;65.31;93672.69;4972228;28;20034;-73
2023/06/14 05:28:17;;;;;;;11.90;8.32;;;;;;;18.39;65.86;93651.31;4974818;28;20477;-72
2023/06/14 05:30:43;;;;;;;9.43;8.35;;;;;;;18.41;64.98;93667.91;4975378;28;20022;-73
2023/06/14 05:33:09;;;;;;;10.57;7.85;;;;;;;18.46;65.32;93679.13;4974749;28;20627;-72
2023/06/14 05:35:34;;;;;;;10.77;7.75;;;;;;;18.30;65.23;93680.44;4975603;28;20045;-73
2023/06/14 05:38:00;;;;;;;10.45;8.07;;;;;;;18.25;65.85;93669.97;4989311;28;20026;-74
2023/06/14 05:40:25;;;;;;;9.48;7.25;;;;;;;18.18;65.66;93680.66;4974979;28;20046;-73
2023/06/14 05:42:51;;;;;;;9.02;6.88;;;;;;;18.17;66.43;93666.44;4973330;28;20034;-73
2023/06/14 05:45:16;;;;;;;13.65;8.07;;;;;;;18.20;65.97;93673.00;4971458;28;20038;-73
2023/06/14 05:47:42;;;;;;;9.82;7.63;;;;;;;18.27;66.05;93681.16;4973508;28;20030;-74
2023/06/14 05:50:08;;;;;;;9.70;8.00;;;;;;;17.86;66.64;93680.94;4971267;28;20050;-71
2023/06/14 05:52:34;;;;;;;9.93;7.65;;;;;;;18.00;65.75;93681.19;4973668;28;20069;-71
2023/06/14 05:55:00;;;;;;;12.15;8.77;;;;;;;17.98;67.13;93671.94;4974215;28;20719;-75
2023/06/14 05:57:25;;;;;;;9.23;7.97;;;;;;;18.09;65.52;93682.84;4977573;28;20045;-74
2023/06/14 05:59:51;;;;;;;11.25;8.05;;;;;;;18.10;65.70;93684.38;4978696;28;20042;-73
2023/06/14 06:02:16;;;;;;;11.63;8.30;;;;;;;18.01;65.82;93676.56;4977210;28;20138;-73
2023/06/14 06:04:42;;;;;;;10.45;7.70;;;;;;;18.15;66.06;93684.06;4980212;28;20041;-73
2023/06/14 06:07:07;;;;;;;13.52;9.32;;;;;;;17.94;67.09;93688.00;4974383;28;20363;-73
2023/06/14 06:09:33;;;;;;;11.27;9.95;;;;;;;18.15;66.02;93700.22;4978160;28;20049;-73
2023/06/14 06:11:58;;;;;;;12.35;9.70;;;;;;;18.09;66.46;93693.63;4978662;28;20050;-74
2023/06/14 06:14:24;;;;;;;12.60;9.52;;;;;;;17.93;66.62;93694.53;4976653;28;20061;-73
2023/06/14 06:16:49;;;;;;;15.80;9.65;;;;;;;17.92;66.68;93687.56;4978507;28;20385;-73
2023/06/14 06:19:15;;;;;;;10.98;8.98;;;;;;;17.91;66.64;93698.69;4974073;28;20126;-73
2023/06/14 06:21:40;;;;;;;9.65;8.50;;;;;;;17.88;66.50;93700.19;4976853;28;20402;-74
2023/06/14 06:24:06;;;;;;;11.80;9.55;;;;;;;18.01;66.78;93709.66;4976548;28;20386;-74
2023/06/14 06:26:32;;;;;;;11.07;9.20;;;;;;;18.06;67.86;93700.47;4977182;28;20204;-73
2023/06/14 06:28:59;;;;;;;12.52;10.38;;;;;;;18.10;67.31;93706.69;4976755;28;20497;-73
2023/06/14 06:31:25;;;;;;;13.15;9.65;;;;;;;18.21;66.86;93712.22;4980526;28;20038;-74
2023/06/14 06:33:51;;;;;;;16.02;11.05;;;;;;;18.21;67.22;93704.16;4977600;28;20652;-73
2023/06/14 06:36:16;;;;;;;17.90;11.90;;;;;;;18.19;67.27;93703.72;4976502;28;20400;-74
2023/06/14 06:38:42;;;;;;;15.90;9.82;;;;;;;18.01;67.90;93708.88;4976208;28;20113;-73
2023/06/14 06:41:07;;;;;;;24.17;12.88;;;;;;;17.83;67.43;93686.28;4978297;28;20038;-73
2023/06/14 06:43:32;;;;;;;15.18;11.90;;;;;;;18.02;67.65;93702.34;4990847;28;20158;-75
2023/06/14 06:45:58;;;;;;;16.88;11.20;;;;;;;18.15;67.39;93713.66;4978226;28;20060;-74
2023/06/14 06:48:23;;;;;;;13.93;11.23;;;;;;;18.25;67.78;93718.44;4976624;28;20070;-73
2023/06/14 06:50:49;;;;;;;15.25;11.00;;;;;;;18.22;66.83;93708.41;4976506;28;20492;-74
2023/06/14 06:53:15;;;;;;;16.08;11.18;;;;;;;18.22;67.56;93713.78;4976443;28;20030;-73
2023/06/14 06:55:40;;;;;;;15.27;10.98;;;;;;;18.19;66.46;93711.81;4978372;28;20104;-74
2023/06/14 06:58:06;;;;;;;19.00;12.85;;;;;;;18.12;66.98;93717.88;4976662;28;20029;-73
2023/06/14 07:00:31;;;;;;;16.40;11.20;;;;;;;17.90;67.54;93719.44;4977216;28;20109;-74
2023/06/14 07:02:57;;;;;;;15.07;11.68;;;;;;;17.89;67.49;93711.75;4973946;28;20342;-74
2023/06/14 07:05:23;;;;;;;14.65;12.27;;;;;;;18.10;67.81;93719.38;4975469;28;20539;-73
2023/06/14 07:07:48;;;;;;;14.07;10.45;;;;;;;18.31;67.41;93706.22;4990579;28;20118;-74
2023/06/14 07:10:14;;;;;;;17.05;10.48;;;;;;;18.52;64.73;93722.66;4976503;28;20018;-73
2023/06/14 07:12:39;;;;;;;14.18;11.15;;;;;;;18.57;66.59;93724.28;4978995;28;20026;-74
2023/06/14 07:15:08;;;;;;;12.25;9.70;;;;;;;18.36;66.85;93722.84;4974450;28;20104;-74
2023/06/14 07:17:35;;;;;;;17.30;11.07;;;;;;;18.27;66.53;93711.56;4977374;28;20081;-73
2023/06/14 07:20:05;;;;;;;17.80;11.07;;;;;;;18.36;67.06;93713.97;4974625;28;20960;-74
2023/06/14 07:22:30;;;;;;;17.05;11.93;;;;;;;18.35;67.99;93712.41;4975278;28;21069;-73
2023/06/14 07:24:56;;;;;;;16.38;11.32;;;;;;;18.59;67.64;93711.97;4974534;28;20037;-74
2023/06/14 07:27:21;;;;;;;14.02;11.25;;;;;;;18.49;67.38;93683.00;4975479;28;20735;-73
2023/06/14 07:29:46;;;;;;;17.27;11.70;;;;;;;18.67;67.84;93710.94;4977164;28;20034;-73
2023/06/14 07:32:12;;;;;;;20.70;11.48;;;;;;;18.65;67.50;93701.66;4975340;28;20038;-74
2023/06/14 07:34:37;;;;;;;17.27;11.80;;;;;;;18.73;67.67;93714.09;4976097;28;20183;-74
2023/06/14 07:37:03;;;;;;;15.15;11.93;;;;;;;18.76;67.24;93708.00;4976196;28;20030;-74
2023/06/14 07:39:28;;;;;;;20.73;11.68;;;;;;;18.63;65.76;93704.72;4975672;28;20033;-73
2023/06/14 07:41:53;;;;;;;16.23;12.10;;;;;;;18.85;65.87;93706.56;4971222;28;20043;-74
2023/06/14 07:44:19;;;;;;;14.98;11.73;;;;;;;18.96;65.60;93703.22;4978855;28;20038;-74
2023/06/14 07:46:45;;;;;;;20.10;12.32;;;;;;;19.18;65.56;93710.38;4975984;28;20552;-73
2023/06/14 07:49:11;;;;;;;14.65;11.40;;;;;;;19.11;63.25;93711.09;4977954;28;20038;-73
2023/06/14 07:51:37;;;;;;;12.85;9.07;;;;;;;18.95;61.87;93704.34;4977218;28;20587;-73
2023/06/14 07:54:03;;;;;;;14.50;10.55;;;;;;;18.96;64.61;93709.38;4974241;28;20027;-74
2023/06/14 07:56:28;;;;;;;13.43;10.32;;;;;;;19.10;65.40;93709.53;4974594;28;20472;-73
2023/06/14 07:58:54;;;;;;;15.02;10.95;;;;;;;19.14;64.99;93706.88;4977688;28;20041;-72
2023/06/14 08:01:20;;;;;;;18.17;11.65;;;;;;;19.12;64.49;93730.72;4980919;28;20034;-73
2023/06/14 08:03:45;;;;;;;15.98;10.45;;;;;;;19.01;63.68;93722.53;4974521;28;20109;-73
2023/06/14 08:06:11;;;;;;;12.43;10.35;;;;;;;19.29;62.54;93730.13;4973916;28;20048;-73
2023/06/14 08:08:36;;;;;;;16.38;10.00;;;;;;;19.08;63.23;93717.22;4976430;28;20061;-73
2023/06/14 08:11:01;;;;;;;12.45;10.07;;;;;;;19.03;63.50;93736.41;4970614;28;20046;-72
2023/06/14 08:13:27;;;;;;;17.27;11.73;;;;;;;18.93;63.18;93737.06;4974366;28;20070;-73
2023/06/14 08:15:52;;;;;;;14.20;11.65;;;;;;;18.94;64.92;93737.84;4975692;28;20035;-74
2023/06/14 08:18:18;;;;;;;14.40;10.75;;;;;;;19.10;62.73;93730.31;4973024;28;20085;-73
2023/06/14 08:20:43;;;;;;;15.00;10.38;;;;;;;19.17;62.35;93746.56;4976000;28;20053;-72
2023/06/14 08:23:09;;;;;;;16.52;11.50;;;;;;;19.16;62.94;93739.63;4974095;28;20061;-73
2023/06/14 08:25:35;;;;;;;12.75;10.02;;;;;;;19.21;62.96;93740.06;4977336;28;20030;-73
2023/06/14 08:28:00;;;;;;;13.68;10.55;;;;;;;19.23;62.81;93751.25;4974856;28;20443;-72
2023/06/14 08:30:26;;;;;;;12.75;10.90;;;;;;;19.45;64.42;93741.53;4971481;28;20042;-73
2023/06/14 08:32:52;;;;;;;15.27;10.75;;;;;;;19.47;65.70;93739.22;4977424;28;20061;-72
2023/06/14 08:35:18;;;;;;;11.57;9.93;;;;;;;19.61;63.73;93739.34;4974015;28;20386;-73
2023/06/14 08:37:43;;;;;;;15.80;10.13;;;;;;;19.81;64.39;93744.53;4976081;28;20035;-73
2023/06/14 08:40:21;;;;;;;16.65;10.88;;;;;;;19.73;63.05;93747.19;4974988;28;20034;-72
2023/06/14 08:42:54;;;;;;;25.17;12.00;;;;;;;19.60;61.08;93740.47;4975312;28;20022;-73
2023/06/14 08:45:21;;;;;;;16.55;11.32;;;;;;;19.44;62.33;93729.13;4976577;28;20720;-73
2023/06/14 08:47:51;;;;;;;13.60;11.10;;;;;;;19.50;61.61;93738.50;4974791;28;20042;-73
2023/06/14 08:50:20;;;;;;;13.13;10.48;;;;;;;19.61;61.31;93739.34;4974236;28;20069;-73
2023/06/14 08:52:50;;;;;;;14.30;10.52;;;;;;;19.67;61.61;93737.09;4974010;28;20031;-73
2023/06/14 08:55:17;;;;;;;14.32;11.23;;;;;;;19.51;61.70;93707.66;4964061;28;20057;-72
2023/06/14 08:57:44;;;;;;;17.48;12.20;;;;;;;19.75;60.50;93723.28;4972482;28;20475;-73
2023/06/14 09:00:12;;;;;;;14.80;11.38;;;;;;;19.79;59.33;93734.13;4973529;28;20046;-73
2023/06/14 09:02:43;;;;;;;19.00;11.95;;;;;;;19.84;60.64;93733.00;4973111;28;20038;-73
2023/06/14 09:05:10;;;;;;;16.25;10.90;;;;;;;19.95;61.85;93725.75;4974226;28;20041;-72
2023/06/14 09:07:36;;;;;;;14.57;11.75;;;;;;;20.00;61.59;93723.47;4970235;28;20597;-73
2023/06/14 09:10:12;;;;;;;19.10;12.60;;;;;;;19.93;61.04;93717.25;4973596;28;20545;-73
2023/06/14 09:12:39;;;;;;;13.90;10.80;;;;;;;20.05;60.16;93725.81;4964262;28;20182;-73
2023/06/14 09:15:06;;;;;;;19.25;11.25;;;;;;;19.91;61.00;93709.53;4971088;28;20041;-73
2023/06/14 09:17:38;;;;;;;17.42;11.77;;;;;;;19.91;60.14;93724.94;4974500;28;21086;-71
2023/06/14 09:20:08;;;;;;;15.15;11.00;;;;;;;19.82;61.79;93727.97;4973145;28;20054;-72
2023/06/14 09:22:34;;;;;;;16.33;11.38;;;;;;;20.07;62.37;93728.16;4973184;28;20193;-73
2023/06/14 09:25:00;;;;;;;14.13;10.60;;;;;;;20.19;59.86;93727.13;4975077;28;20536;-73
2023/06/14 09:27:26;;;;;;;18.05;10.90;;;;;;;20.34;60.90;93723.34;4989224;28;20030;-73
2023/06/14 09:29:53;;;;;;;15.45;12.45;;;;;;;20.15;59.83;93714.34;4974256;28;20043;-72
2023/06/14 09:32:18;;;;;;;16.30;12.55;;;;;;;20.31;61.14;93721.41;4977781;28;20461;-74
2023/06/14 09:34:45;;;;;;;17.33;11.70;;;;;;;20.18;60.90;93712.84;4976802;28;20039;-73
2023/06/14 09:37:11;;;;;;;19.02;12.57;;;;;;;20.08;60.65;93700.03;4975347;28;20042;-72
2023/06/14 09:39:49;;;;;;;16.80;11.93;;;;;;;20.39;61.81;93723.78;4979646;28;20080;-73
2023/06/14 09:42:19;;;;;;;16.75;11.85;;;;;;;20.38;61.54;93708.75;4978108;28;20046;-73
2023/06/14 09:44:49;;;;;;;19.83;13.82;;;;;;;20.48;61.41;93704.53;4979025;28;20580;-76
2023/06/14 09:47:18;;;;;;;14.48;12.35;;;;;;;20.67;61.32;93717.00;4991547;28;20471;-76
2023/06/14 09:49:44;;;;;;;17.85;13.90;;;;;;;20.68;59.85;93707.72;4990856;28;20298;-72
2023/06/14 09:52:17;;;;;;;19.77;13.20;;;;;;;20.68;60.03;93697.69;4979787;28;20046;-73
2023/06/14 09:54:46;;;;;;;20.15;14.20;;;;;;;20.92;57.98;93702.44;4977540;28;20034;-73
2023/06/14 09:57:13;;;;;;;17.77;11.75;;;;;;;20.80;57.83;93699.28;4978284;28;20047;-74
2023/06/14 09:59:45;;;;;;;14.82;12.32;;;;;;;20.66;58.07;93693.81;4991413;28;20465;-75
2023/06/14 10:02:33;;;;;;;15.73;11.95;;;;;;;20.67;57.07;93695.38;4980334;28;20070;-74
2023/06/14 10:05:06;;;;;;;14.65;11.40;;;;;;;20.51;60.21;93698.38;4970246;28;20038;-74
2023/06/14 10:07:55;;;;;;;19.10;12.63;;;;;;;20.66;59.79;93691.13;4978170;28;20044;-75
2023/06/14 10:10:21;;;;;;;15.70;11.98;;;;;;;20.55;58.88;93678.34;4979999;28;20220;-74
2023/06/14 10:12:47;;;;;;;17.20;12.82;;;;;;;20.68;59.73;93684.16;4977937;28;20520;-73
2023/06/14 10:15:32;;;;;;;18.73;14.05;;;;;;;20.46;58.01;93664.41;4982180;28;20101;-74
2023/06/14 10:18:03;;;;;;;;;;;;;;;20.54;57.78;93687.56;4981920;28;20100;-74
2023/06/14 10:20:37;;;;;;;17.30;12.57;;;;;;;20.53;59.00;93680.63;4981413;28;20406;-73
2023/06/14 10:23:19;;;;;;;20.45;13.20;;;;;;;20.95;60.18;93677.38;4978965;28;20057;-73
2023/06/14 10:25:45;;;;;;;18.00;12.63;;;;;;;20.91;58.83;93659.59;4978124;28;20035;-73
2023/06/14 10:28:18;;;;;;;14.85;12.40;;;;;;;20.86;56.86;93651.81;4979747;28;20030;-74
2023/06/14 10:31:05;;;;;;;19.77;12.95;;;;;;;20.87;57.57;93683.91;4993843;28;20030;-74
2023/06/14 10:33:31;;;;;;;16.38;12.82;;;;;;;20.90;55.52;93682.38;4977013;28;20323;-74
2023/06/14 10:36:21;;;;;;;14.45;11.80;;;;;;;20.83;55.26;93683.06;4977573;28;20147;-74
2023/06/14 10:39:15;;;;;;;15.77;12.20;;;;;;;21.03;59.38;93661.91;4987049;28;20112;-74
2023/06/14 10:41:41;;;;;;;17.10;11.65;;;;;;;20.94;57.47;93664.22;4988127;28;20073;-73
2023/06/14 10:44:13;;;;;;;16.95;12.57;;;;;;;20.83;57.54;93671.47;4983622;28;20104;-72
2023/06/14 10:46:39;;;;;;;13.63;11.63;;;;;;;20.99;57.00;93674.66;4978177;28;20700;-74
2023/06/14 10:49:06;;;;;;;14.35;12.18;;;;;;;21.13;59.70;93663.88;4987814;28;20045;-73
2023/06/14 10:51:49;;;;;;;14.57;11.82;;;;;;;21.43;58.22;93667.03;4985538;28;20096;-73
2023/06/14 10:54:20;;;;;;;16.73;13.57;;;;;;;21.13;54.90;93646.88;4983052;28;20042;-73
2023/06/14 10:56:52;;;;;;;17.85;12.90;;;;;;;21.14;57.40;93654.63;4978636;28;20053;-74
2023/06/14 10:59:19;;;;;;;17.83;13.32;;;;;;;21.31;57.24;93653.13;4979891;28;20500;-74
2023/06/14 11:02:11;;;;;;;16.08;12.07;;;;;;;21.22;54.39;93639.94;4981810;28;20092;-73
2023/06/14 11:04:52;;;;;;;14.23;11.63;;;;;;;21.15;55.15;93642.66;4971335;28;20912;-73
2023/06/14 11:07:58;;;;;;;18.40;13.82;;;;;;;21.20;54.93;93647.69;4978313;28;20493;-73
2023/06/14 11:10:37;;;;;;;15.15;12.20;;;;;;;21.03;55.52;93632.19;4975361;28;20095;-73
2023/06/14 11:13:03;;;;;;;16.30;11.98;;;;;;;21.13;54.60;93630.66;4979172;28;20026;-73
2023/06/14 11:15:33;;;;;;;15.55;11.52;;;;;;;21.08;54.95;93623.69;4976939;28;20054;-73
2023/06/14 11:18:04;;;;;;;13.68;10.35;;;;;;;20.91;55.98;93581.19;4975087;28;20325;-73
2023/06/14 11:20:31;;;;;;;16.58;10.65;;;;;;;21.26;54.23;93629.94;4976348;28;20042;-72
2023/06/14 11:22:57;;;;;;;13.30;10.95;;;;;;;21.33;56.25;93623.72;4976824;28;20045;-74
2023/06/14 11:25:23;;;;;;;14.93;10.85;;;;;;;21.38;55.36;93626.84;4975999;28;20549;-73
2023/06/14 11:27:52;;;;;;;13.93;10.60;;;;;;;21.41;54.84;93617.94;4976827;28;20033;-73
2023/06/14 11:30:18;;;;;;;14.60;11.38;;;;;;;21.59;53.77;93626.09;4975431;28;20042;-73